TAP1705 LPPR-LPMA
Flight info
| Callsign | TAP1705 |
|---|---|
| Flight time | 2h 6m |
| Altitude | 37000 |
| Route | ASMOV DCT DIRMA DCT ASMAR DCT VERAM DCT LIDRO |
| Aircraft | A319/M-SDE3FGHIRWY/LB1 |
Departure
| Time | 2026-05-07 09:18 |
|---|---|
| Airport | Francisco de Sá Carneiro Airport (LPPR) |
Arrival
| Time | 2026-05-07 11:25 |
|---|---|
| Airport | Cristiano Ronaldo International Airport (LPMA) |
| Time | Latitude | Longitude | Altitude | Speed | Heading |
|---|---|---|---|---|---|
| 2026-05-07 09:03 | 41.24090 | -8.67649 | 238 ft | 0 kts | 258° |
| 2026-05-07 09:11 | 41.24093 | -8.67628 | 241 ft | 4 kts | 262° |
| 2026-05-07 09:11 | 41.24095 | -8.67592 | 236 ft | 4 kts | 272° |
| 2026-05-07 09:11 | 41.24091 | -8.67558 | 236 ft | 4 kts | 302° |
| 2026-05-07 09:11 | 41.24078 | -8.67542 | 236 ft | 1 kts | 348° |
| 2026-05-07 09:12 | 41.24074 | -8.67541 | 236 ft | 0 kts | 348° |
| 2026-05-07 09:13 | 41.24081 | -8.67543 | 237 ft | 3 kts | 348° |
| 2026-05-07 09:14 | 41.24121 | -8.67554 | 236 ft | 7 kts | 348° |
| 2026-05-07 09:14 | 41.24171 | -8.67567 | 236 ft | 8 kts | 348° |
| 2026-05-07 09:14 | 41.24224 | -8.67587 | 237 ft | 9 kts | 328° |
| 2026-05-07 09:14 | 41.24278 | -8.67667 | 229 ft | 16 kts | 304° |
| 2026-05-07 09:15 | 41.24388 | -8.67730 | 222 ft | 20 kts | 350° |
| 2026-05-07 09:15 | 41.24539 | -8.67772 | 213 ft | 24 kts | 348° |
| 2026-05-07 09:15 | 41.24712 | -8.67821 | 206 ft | 28 kts | 348° |
| 2026-05-07 09:15 | 41.24884 | -8.67907 | 192 ft | 25 kts | 335° |
| 2026-05-07 09:16 | 41.25051 | -8.67969 | 185 ft | 26 kts | 349° |
| 2026-05-07 09:16 | 41.25237 | -8.68015 | 179 ft | 29 kts | 351° |
| 2026-05-07 09:16 | 41.25440 | -8.68060 | 171 ft | 31 kts | 347° |
| 2026-05-07 09:16 | 41.25615 | -8.68108 | 165 ft | 19 kts | 349° |
| 2026-05-07 09:17 | 41.25674 | -8.68221 | 166 ft | 16 kts | 256° |
| 2026-05-07 09:17 | 41.25650 | -8.68350 | 166 ft | 9 kts | 215° |
| 2026-05-07 09:17 | 41.25599 | -8.68336 | 168 ft | 8 kts | 167° |
| 2026-05-07 09:17 | 41.25434 | -8.68291 | 171 ft | 56 kts | 169° |
| 2026-05-07 09:18 | 41.24829 | -8.68131 | 195 ft | 119 kts | 169° |
| 2026-05-07 09:18 | 41.23852 | -8.67889 | 321 ft | 157 kts | 171° |
| 2026-05-07 09:18 | 41.22794 | -8.67610 | 986 ft | 155 kts | 171° |
| 2026-05-07 09:18 | 41.21730 | -8.67329 | 1586 ft | 160 kts | 169° |
| 2026-05-07 09:19 | 41.20562 | -8.67020 | 1920 ft | 182 kts | 170° |
| 2026-05-07 09:19 | 41.19241 | -8.66672 | 2212 ft | 207 kts | 169° |
| 2026-05-07 09:19 | 41.17748 | -8.66278 | 2608 ft | 232 kts | 169° |
| 2026-05-07 09:19 | 41.16088 | -8.65843 | 3188 ft | 250 kts | 169° |
| 2026-05-07 09:20 | 41.14357 | -8.65388 | 4066 ft | 257 kts | 168° |
| 2026-05-07 09:20 | 41.12594 | -8.64925 | 5002 ft | 260 kts | 168° |
| 2026-05-07 09:20 | 41.10798 | -8.64537 | 5956 ft | 263 kts | 178° |
| 2026-05-07 09:20 | 41.09010 | -8.65063 | 6811 ft | 269 kts | 206° |
| 2026-05-07 09:21 | 41.07612 | -8.66713 | 7663 ft | 276 kts | 236° |
| 2026-05-07 09:21 | 41.06953 | -8.69113 | 8540 ft | 281 kts | 257° |
| 2026-05-07 09:21 | 41.06570 | -8.71663 | 9465 ft | 283 kts | 258° |
| 2026-05-07 09:21 | 41.06193 | -8.74251 | 10221 ft | 292 kts | 259° |
| 2026-05-07 09:22 | 41.05795 | -8.76986 | 10486 ft | 315 kts | 258° |
| 2026-05-07 09:22 | 41.05361 | -8.79919 | 10972 ft | 328 kts | 258° |
| 2026-05-07 09:22 | 41.04725 | -8.82851 | 11680 ft | 333 kts | 249° |
| 2026-05-07 09:22 | 41.03902 | -8.85744 | 12458 ft | 337 kts | 249° |
| 2026-05-07 09:23 | 41.03064 | -8.88656 | 13243 ft | 340 kts | 249° |
| 2026-05-07 09:23 | 41.02226 | -8.91555 | 13959 ft | 344 kts | 249° |
| 2026-05-07 09:23 | 41.01366 | -8.94527 | 14607 ft | 347 kts | 249° |
| 2026-05-07 09:23 | 41.00502 | -8.97520 | 15290 ft | 350 kts | 249° |
| 2026-05-07 09:24 | 40.99633 | -9.00536 | 15977 ft | 352 kts | 249° |
| 2026-05-07 09:24 | 40.98752 | -9.03582 | 16638 ft | 355 kts | 249° |
| 2026-05-07 09:24 | 40.97860 | -9.06658 | 17293 ft | 359 kts | 250° |
| 2026-05-07 09:24 | 40.96961 | -9.09753 | 17938 ft | 362 kts | 250° |
| 2026-05-07 09:25 | 40.96053 | -9.12874 | 18557 ft | 364 kts | 250° |
| 2026-05-07 09:25 | 40.95138 | -9.16020 | 19120 ft | 368 kts | 250° |
| 2026-05-07 09:25 | 40.94228 | -9.19156 | 19660 ft | 371 kts | 251° |
| 2026-05-07 09:25 | 40.93297 | -9.22354 | 20217 ft | 374 kts | 251° |
| 2026-05-07 09:26 | 40.92354 | -9.25581 | 20771 ft | 378 kts | 251° |
| 2026-05-07 09:26 | 40.91404 | -9.28837 | 21326 ft | 381 kts | 251° |
| 2026-05-07 09:26 | 40.90446 | -9.32115 | 21870 ft | 384 kts | 251° |
| 2026-05-07 09:26 | 40.89477 | -9.35423 | 22412 ft | 387 kts | 251° |
| 2026-05-07 09:27 | 40.88498 | -9.38759 | 22947 ft | 391 kts | 252° |
| 2026-05-07 09:27 | 40.87509 | -9.42118 | 23471 ft | 394 kts | 252° |
| 2026-05-07 09:27 | 40.85394 | -9.48866 | 24318 ft | 402 kts | 245° |
| 2026-05-07 09:28 | 40.83868 | -9.51932 | 24753 ft | 409 kts | 236° |
| 2026-05-07 09:28 | 40.81950 | -9.54797 | 25192 ft | 413 kts | 232° |
| 2026-05-07 09:28 | 40.80017 | -9.57613 | 25621 ft | 414 kts | 233° |
| 2026-05-07 09:28 | 40.78103 | -9.60413 | 26046 ft | 416 kts | 233° |
| 2026-05-07 09:29 | 40.76159 | -9.63254 | 26469 ft | 417 kts | 233° |
| 2026-05-07 09:29 | 40.74212 | -9.66099 | 26875 ft | 419 kts | 233° |
| 2026-05-07 09:29 | 40.72251 | -9.68962 | 27287 ft | 421 kts | 233° |
| 2026-05-07 09:29 | 40.70281 | -9.71833 | 27711 ft | 422 kts | 234° |
| 2026-05-07 09:30 | 40.68304 | -9.74710 | 28120 ft | 424 kts | 234° |
| 2026-05-07 09:30 | 40.66318 | -9.77597 | 28517 ft | 426 kts | 234° |
| 2026-05-07 09:30 | 40.64325 | -9.80494 | 28915 ft | 428 kts | 234° |
| 2026-05-07 09:30 | 40.62323 | -9.83399 | 29263 ft | 430 kts | 234° |
| 2026-05-07 09:31 | 40.60312 | -9.86313 | 29697 ft | 430 kts | 234° |
| 2026-05-07 09:31 | 40.58299 | -9.89222 | 30084 ft | 431 kts | 234° |
| 2026-05-07 09:31 | 40.56279 | -9.92142 | 30403 ft | 432 kts | 234° |
| 2026-05-07 09:31 | 40.54256 | -9.95067 | 30716 ft | 433 kts | 234° |
| 2026-05-07 09:32 | 40.52226 | -9.98001 | 31025 ft | 434 kts | 234° |
| 2026-05-07 09:32 | 40.50189 | -10.00937 | 31340 ft | 435 kts | 234° |
| 2026-05-07 09:32 | 40.48144 | -10.03876 | 31708 ft | 434 kts | 234° |
| 2026-05-07 09:32 | 40.46139 | -10.06758 | 32139 ft | 432 kts | 234° |
| 2026-05-07 09:33 | 40.44121 | -10.09659 | 32613 ft | 429 kts | 235° |
| 2026-05-07 09:33 | 40.42118 | -10.12540 | 33057 ft | 426 kts | 235° |
| 2026-05-07 09:33 | 40.40122 | -10.15406 | 33504 ft | 424 kts | 235° |
| 2026-05-07 09:33 | 40.38136 | -10.18255 | 33945 ft | 422 kts | 235° |
| 2026-05-07 09:34 | 40.36162 | -10.21084 | 34295 ft | 420 kts | 234° |
| 2026-05-07 09:34 | 40.34191 | -10.23907 | 34648 ft | 419 kts | 234° |
| 2026-05-07 09:34 | 40.32222 | -10.26726 | 34951 ft | 419 kts | 234° |
| 2026-05-07 09:34 | 40.30255 | -10.29546 | 35231 ft | 419 kts | 234° |
| 2026-05-07 09:35 | 40.28287 | -10.32363 | 35494 ft | 419 kts | 233° |
| 2026-05-07 09:35 | 40.26312 | -10.35176 | 35750 ft | 420 kts | 233° |
| 2026-05-07 09:35 | 40.24334 | -10.37989 | 36001 ft | 420 kts | 233° |
| 2026-05-07 09:35 | 40.22357 | -10.40802 | 36245 ft | 420 kts | 233° |
| 2026-05-07 09:36 | 40.20380 | -10.43619 | 36483 ft | 420 kts | 233° |
| 2026-05-07 09:36 | 40.18398 | -10.46445 | 36710 ft | 421 kts | 233° |
| 2026-05-07 09:36 | 40.16420 | -10.49261 | 36924 ft | 422 kts | 233° |
| 2026-05-07 09:37 | 40.12477 | -10.54844 | 36968 ft | 419 kts | 232° |
| 2026-05-07 09:37 | 40.08519 | -10.60427 | 36970 ft | 418 kts | 232° |
| 2026-05-07 09:38 | 40.04574 | -10.65991 | 36969 ft | 417 kts | 232° |
| 2026-05-07 09:38 | 40.00626 | -10.71558 | 36974 ft | 417 kts | 232° |
| 2026-05-07 09:39 | 39.96681 | -10.77110 | 36949 ft | 417 kts | 232° |
| 2026-05-07 09:39 | 39.92741 | -10.82658 | 36964 ft | 417 kts | 232° |
| 2026-05-07 09:40 | 39.88794 | -10.88197 | 36974 ft | 417 kts | 232° |
| 2026-05-07 09:40 | 39.84867 | -10.93691 | 36977 ft | 417 kts | 232° |
| 2026-05-07 09:41 | 39.80920 | -10.99200 | 36986 ft | 415 kts | 232° |
| 2026-05-07 09:41 | 39.76981 | -11.04687 | 36988 ft | 415 kts | 232° |
| 2026-05-07 09:42 | 39.73048 | -11.10158 | 36990 ft | 414 kts | 232° |
| 2026-05-07 09:42 | 39.69084 | -11.15582 | 36977 ft | 416 kts | 226° |
| 2026-05-07 09:43 | 39.64305 | -11.19953 | 36985 ft | 421 kts | 220° |
| 2026-05-07 09:43 | 39.59440 | -11.24196 | 36985 ft | 421 kts | 220° |
| 2026-05-07 09:44 | 39.54639 | -11.28454 | 36973 ft | 421 kts | 220° |
| 2026-05-07 09:44 | 39.49786 | -11.32703 | 36978 ft | 421 kts | 219° |
| 2026-05-07 09:45 | 39.44927 | -11.36908 | 36988 ft | 419 kts | 219° |
| 2026-05-07 09:45 | 39.40090 | -11.41104 | 37000 ft | 418 kts | 220° |
| 2026-05-07 09:46 | 39.35271 | -11.45283 | 37005 ft | 417 kts | 220° |
| 2026-05-07 09:46 | 39.30461 | -11.49456 | 37002 ft | 416 kts | 220° |
| 2026-05-07 09:47 | 39.25658 | -11.53601 | 36999 ft | 415 kts | 220° |
| 2026-05-07 09:47 | 39.20852 | -11.57747 | 36979 ft | 415 kts | 220° |
| 2026-05-07 09:48 | 39.16044 | -11.61879 | 36988 ft | 414 kts | 220° |
| 2026-05-07 09:48 | 39.12061 | -11.65308 | 36991 ft | 414 kts | 220° |
| 2026-05-07 09:49 | 39.06491 | -11.70095 | 36995 ft | 414 kts | 219° |
| 2026-05-07 09:49 | 39.01695 | -11.74197 | 36995 ft | 414 kts | 219° |
| 2026-05-07 09:50 | 38.97703 | -11.77605 | 36980 ft | 414 kts | 219° |
| 2026-05-07 09:50 | 38.92909 | -11.81693 | 36995 ft | 413 kts | 219° |
| 2026-05-07 09:51 | 38.88122 | -11.85774 | 37001 ft | 413 kts | 219° |
| 2026-05-07 09:51 | 38.83339 | -11.89853 | 37003 ft | 412 kts | 219° |
| 2026-05-07 09:52 | 38.78560 | -11.93912 | 37000 ft | 412 kts | 219° |
| 2026-05-07 09:52 | 38.73782 | -11.97977 | 37002 ft | 412 kts | 219° |
| 2026-05-07 09:53 | 38.69013 | -12.02026 | 36991 ft | 411 kts | 219° |
| 2026-05-07 09:53 | 38.64238 | -12.06059 | 37003 ft | 411 kts | 219° |
| 2026-05-07 09:54 | 38.59473 | -12.10075 | 37013 ft | 410 kts | 219° |
| 2026-05-07 09:54 | 38.54744 | -12.14058 | 37017 ft | 409 kts | 219° |
| 2026-05-07 09:55 | 38.49995 | -12.18058 | 37004 ft | 408 kts | 219° |
| 2026-05-07 09:55 | 38.45255 | -12.22041 | 37003 ft | 408 kts | 219° |
| 2026-05-07 09:56 | 38.40518 | -12.26022 | 37010 ft | 407 kts | 219° |
| 2026-05-07 09:56 | 38.35788 | -12.29985 | 37013 ft | 406 kts | 219° |
| 2026-05-07 09:57 | 38.31060 | -12.33934 | 37012 ft | 406 kts | 219° |
| 2026-05-07 09:57 | 38.26337 | -12.37874 | 37013 ft | 406 kts | 219° |
| 2026-05-07 09:58 | 38.21631 | -12.41835 | 37001 ft | 405 kts | 220° |
| 2026-05-07 09:58 | 38.16950 | -12.45796 | 37020 ft | 403 kts | 220° |
| 2026-05-07 09:59 | 38.12285 | -12.49737 | 37022 ft | 402 kts | 220° |
| 2026-05-07 09:59 | 38.07652 | -12.53641 | 37021 ft | 401 kts | 220° |
| 2026-05-07 10:00 | 38.02995 | -12.57550 | 37018 ft | 401 kts | 220° |
| 2026-05-07 10:00 | 37.98339 | -12.61458 | 37018 ft | 400 kts | 220° |
| 2026-05-07 10:01 | 37.93694 | -12.65353 | 37006 ft | 400 kts | 220° |
| 2026-05-07 10:01 | 37.89054 | -12.69243 | 37011 ft | 399 kts | 220° |
| 2026-05-07 10:02 | 37.84445 | -12.73090 | 37012 ft | 399 kts | 219° |
| 2026-05-07 10:02 | 37.79810 | -12.76947 | 37011 ft | 398 kts | 219° |
| 2026-05-07 10:03 | 37.75176 | -12.80804 | 37014 ft | 398 kts | 219° |
| 2026-05-07 10:03 | 37.70554 | -12.84647 | 37015 ft | 398 kts | 219° |
| 2026-05-07 10:04 | 37.65925 | -12.88491 | 37015 ft | 398 kts | 219° |
| 2026-05-07 10:04 | 37.61300 | -12.92321 | 37013 ft | 398 kts | 219° |
| 2026-05-07 10:05 | 37.56678 | -12.96153 | 37012 ft | 397 kts | 219° |
| 2026-05-07 10:05 | 37.52057 | -12.99978 | 37010 ft | 397 kts | 219° |
| 2026-05-07 10:06 | 37.47429 | -13.03786 | 37009 ft | 397 kts | 219° |
| 2026-05-07 10:06 | 37.42803 | -13.07593 | 36994 ft | 397 kts | 219° |
| 2026-05-07 10:07 | 37.38218 | -13.11372 | 37002 ft | 396 kts | 219° |
| 2026-05-07 10:07 | 37.33604 | -13.15163 | 37020 ft | 396 kts | 219° |
| 2026-05-07 10:08 | 37.29001 | -13.18936 | 37025 ft | 394 kts | 219° |
| 2026-05-07 10:08 | 37.24404 | -13.22701 | 37028 ft | 394 kts | 219° |
| 2026-05-07 10:09 | 37.19820 | -13.26447 | 36996 ft | 393 kts | 219° |
| 2026-05-07 10:09 | 37.15244 | -13.30179 | 37012 ft | 392 kts | 219° |
| 2026-05-07 10:10 | 37.10671 | -13.33905 | 37016 ft | 391 kts | 219° |
| 2026-05-07 10:10 | 37.06114 | -13.37618 | 37016 ft | 391 kts | 219° |
| 2026-05-07 10:11 | 37.01554 | -13.41332 | 37011 ft | 390 kts | 219° |
| 2026-05-07 10:11 | 36.96993 | -13.45038 | 37009 ft | 390 kts | 219° |
| 2026-05-07 10:12 | 36.92466 | -13.48702 | 36995 ft | 390 kts | 219° |
| 2026-05-07 10:12 | 36.87880 | -13.52409 | 37008 ft | 390 kts | 219° |
| 2026-05-07 10:13 | 36.83370 | -13.56061 | 37018 ft | 389 kts | 219° |
| 2026-05-07 10:13 | 36.78828 | -13.59736 | 37034 ft | 388 kts | 219° |
| 2026-05-07 10:14 | 36.74290 | -13.63398 | 37022 ft | 388 kts | 219° |
| 2026-05-07 10:14 | 36.69755 | -13.67046 | 37022 ft | 388 kts | 219° |
| 2026-05-07 10:15 | 36.65217 | -13.70685 | 37002 ft | 388 kts | 219° |
| 2026-05-07 10:15 | 36.60682 | -13.74332 | 37004 ft | 388 kts | 219° |
| 2026-05-07 10:16 | 36.56143 | -13.77965 | 37008 ft | 388 kts | 219° |
| 2026-05-07 10:16 | 36.51599 | -13.81593 | 37018 ft | 388 kts | 219° |
| 2026-05-07 10:17 | 36.47075 | -13.85210 | 37022 ft | 388 kts | 219° |
| 2026-05-07 10:17 | 36.42540 | -13.88839 | 37035 ft | 387 kts | 219° |
| 2026-05-07 10:18 | 36.38018 | -13.92445 | 37016 ft | 386 kts | 220° |
| 2026-05-07 10:18 | 36.33499 | -13.96044 | 37021 ft | 386 kts | 220° |
| 2026-05-07 10:19 | 36.28980 | -13.99636 | 37024 ft | 386 kts | 220° |
| 2026-05-07 10:19 | 36.24451 | -14.03224 | 37026 ft | 386 kts | 220° |
| 2026-05-07 10:20 | 36.19931 | -14.06810 | 37027 ft | 386 kts | 220° |
| 2026-05-07 10:20 | 36.15406 | -14.10386 | 37031 ft | 386 kts | 219° |
| 2026-05-07 10:21 | 36.10882 | -14.13956 | 37018 ft | 385 kts | 220° |
| 2026-05-07 10:21 | 36.06375 | -14.17520 | 37024 ft | 385 kts | 220° |
| 2026-05-07 10:22 | 36.01859 | -14.21088 | 37029 ft | 385 kts | 220° |
| 2026-05-07 10:22 | 35.97374 | -14.24615 | 37040 ft | 384 kts | 219° |
| 2026-05-07 10:23 | 35.92862 | -14.28153 | 37045 ft | 384 kts | 219° |
| 2026-05-07 10:23 | 35.88363 | -14.31678 | 37016 ft | 383 kts | 219° |
| 2026-05-07 10:24 | 35.83872 | -14.35200 | 37018 ft | 382 kts | 219° |
| 2026-05-07 10:24 | 35.79379 | -14.38716 | 37018 ft | 382 kts | 219° |
| 2026-05-07 10:25 | 35.74887 | -14.42228 | 37026 ft | 382 kts | 219° |
| 2026-05-07 10:25 | 35.70393 | -14.45738 | 37027 ft | 382 kts | 219° |
| 2026-05-07 10:26 | 35.65901 | -14.49246 | 37031 ft | 383 kts | 219° |
| 2026-05-07 10:26 | 35.61405 | -14.52745 | 36995 ft | 383 kts | 219° |
| 2026-05-07 10:27 | 35.56898 | -14.56243 | 37005 ft | 383 kts | 219° |
| 2026-05-07 10:27 | 35.52389 | -14.59748 | 37020 ft | 383 kts | 219° |
| 2026-05-07 10:28 | 35.47882 | -14.63245 | 37025 ft | 383 kts | 219° |
| 2026-05-07 10:28 | 35.43368 | -14.66734 | 37030 ft | 383 kts | 219° |
| 2026-05-07 10:29 | 35.38860 | -14.70218 | 37032 ft | 383 kts | 219° |
| 2026-05-07 10:29 | 35.34344 | -14.73710 | 37033 ft | 383 kts | 219° |
| 2026-05-07 10:30 | 35.27587 | -14.78925 | 37013 ft | 385 kts | 219° |
| 2026-05-07 10:30 | 35.23048 | -14.82417 | 37019 ft | 386 kts | 219° |
| 2026-05-07 10:31 | 35.18505 | -14.85912 | 37027 ft | 386 kts | 219° |
| 2026-05-07 10:31 | 35.13956 | -14.89405 | 37037 ft | 386 kts | 219° |
| 2026-05-07 10:32 | 35.09400 | -14.92895 | 37046 ft | 387 kts | 219° |
| 2026-05-07 10:32 | 35.04852 | -14.96373 | 37079 ft | 384 kts | 218° |
| 2026-05-07 10:33 | 35.00332 | -14.99818 | 37081 ft | 382 kts | 218° |
| 2026-05-07 10:33 | 34.95846 | -15.03245 | 37071 ft | 380 kts | 218° |
| 2026-05-07 10:34 | 34.91374 | -15.06661 | 37065 ft | 379 kts | 218° |
| 2026-05-07 10:34 | 34.86907 | -15.10064 | 37069 ft | 378 kts | 218° |
| 2026-05-07 10:35 | 34.83201 | -15.12888 | 37063 ft | 378 kts | 218° |
| 2026-05-07 10:35 | 34.78019 | -15.16826 | 37026 ft | 378 kts | 218° |
| 2026-05-07 10:36 | 34.74308 | -15.19640 | 37034 ft | 378 kts | 218° |
| 2026-05-07 10:36 | 34.69835 | -15.23024 | 37048 ft | 379 kts | 218° |
| 2026-05-07 10:37 | 34.65357 | -15.26409 | 37053 ft | 379 kts | 218° |
| 2026-05-07 10:37 | 34.60883 | -15.29798 | 37060 ft | 379 kts | 218° |
| 2026-05-07 10:38 | 34.56409 | -15.33179 | 37055 ft | 379 kts | 218° |
| 2026-05-07 10:38 | 34.51935 | -15.36552 | 37026 ft | 379 kts | 218° |
| 2026-05-07 10:39 | 34.47456 | -15.39919 | 37034 ft | 379 kts | 218° |
| 2026-05-07 10:39 | 34.43003 | -15.43266 | 37040 ft | 379 kts | 218° |
| 2026-05-07 10:40 | 34.38517 | -15.46635 | 37046 ft | 379 kts | 218° |
| 2026-05-07 10:40 | 34.34024 | -15.50003 | 36899 ft | 381 kts | 218° |
| 2026-05-07 10:41 | 34.31775 | -15.51691 | 36636 ft | 380 kts | 218° |
| 2026-05-07 10:41 | 34.29527 | -15.53377 | 36379 ft | 380 kts | 218° |
| 2026-05-07 10:41 | 34.27273 | -15.55061 | 36123 ft | 381 kts | 218° |
| 2026-05-07 10:41 | 34.25016 | -15.56747 | 35871 ft | 382 kts | 218° |
| 2026-05-07 10:42 | 34.22765 | -15.58429 | 35541 ft | 377 kts | 218° |
| 2026-05-07 10:42 | 34.20549 | -15.60080 | 35107 ft | 373 kts | 217° |
| 2026-05-07 10:42 | 34.18348 | -15.61716 | 34667 ft | 370 kts | 217° |
| 2026-05-07 10:42 | 34.16146 | -15.63357 | 34222 ft | 375 kts | 217° |
| 2026-05-07 10:43 | 34.13917 | -15.65020 | 33740 ft | 377 kts | 217° |
| 2026-05-07 10:43 | 34.11696 | -15.66675 | 33286 ft | 375 kts | 217° |
| 2026-05-07 10:43 | 34.09484 | -15.68321 | 32843 ft | 372 kts | 217° |
| 2026-05-07 10:43 | 34.07284 | -15.69961 | 32387 ft | 370 kts | 217° |
| 2026-05-07 10:44 | 34.05102 | -15.71588 | 31945 ft | 367 kts | 217° |
| 2026-05-07 10:44 | 34.02935 | -15.73201 | 31503 ft | 366 kts | 216° |
| 2026-05-07 10:44 | 34.00745 | -15.74834 | 31069 ft | 383 kts | 216° |
| 2026-05-07 10:44 | 33.98457 | -15.76539 | 30611 ft | 389 kts | 216° |
| 2026-05-07 10:45 | 33.96152 | -15.78247 | 30131 ft | 388 kts | 216° |
| 2026-05-07 10:45 | 33.93848 | -15.79950 | 29651 ft | 388 kts | 216° |
| 2026-05-07 10:45 | 33.91553 | -15.81645 | 29207 ft | 386 kts | 216° |
| 2026-05-07 10:45 | 33.89223 | -15.83372 | 28759 ft | 401 kts | 216° |
| 2026-05-07 10:46 | 33.86827 | -15.85152 | 28309 ft | 407 kts | 216° |
| 2026-05-07 10:46 | 33.84411 | -15.86938 | 27851 ft | 407 kts | 216° |
| 2026-05-07 10:46 | 33.82003 | -15.88714 | 27400 ft | 406 kts | 216° |
| 2026-05-07 10:46 | 33.79600 | -15.90485 | 26967 ft | 404 kts | 216° |
| 2026-05-07 10:47 | 33.77196 | -15.92258 | 26528 ft | 413 kts | 216° |
| 2026-05-07 10:47 | 33.74712 | -15.94096 | 26076 ft | 423 kts | 215° |
| 2026-05-07 10:47 | 33.72203 | -15.95945 | 25591 ft | 424 kts | 215° |
| 2026-05-07 10:47 | 33.69688 | -15.97791 | 25109 ft | 422 kts | 215° |
| 2026-05-07 10:48 | 33.67186 | -15.99627 | 24589 ft | 421 kts | 215° |
| 2026-05-07 10:48 | 33.64700 | -16.01451 | 24105 ft | 418 kts | 215° |
| 2026-05-07 10:48 | 33.62229 | -16.03265 | 23586 ft | 415 kts | 215° |
| 2026-05-07 10:48 | 33.59759 | -16.05081 | 23013 ft | 421 kts | 215° |
| 2026-05-07 10:49 | 33.57229 | -16.06946 | 22491 ft | 431 kts | 215° |
| 2026-05-07 10:49 | 33.54671 | -16.08825 | 21958 ft | 431 kts | 214° |
| 2026-05-07 10:49 | 33.52122 | -16.10691 | 21429 ft | 428 kts | 214° |
| 2026-05-07 10:49 | 33.49589 | -16.12545 | 20907 ft | 425 kts | 214° |
| 2026-05-07 10:50 | 33.47102 | -16.14366 | 20394 ft | 422 kts | 214° |
| 2026-05-07 10:50 | 33.44608 | -16.16192 | 19885 ft | 419 kts | 214° |
| 2026-05-07 10:50 | 33.42126 | -16.18005 | 19378 ft | 416 kts | 214° |
| 2026-05-07 10:50 | 33.39664 | -16.19802 | 18859 ft | 413 kts | 214° |
| 2026-05-07 10:51 | 33.37219 | -16.21586 | 18383 ft | 411 kts | 214° |
| 2026-05-07 10:51 | 33.34781 | -16.23365 | 17842 ft | 408 kts | 214° |
| 2026-05-07 10:51 | 33.32364 | -16.25127 | 17361 ft | 406 kts | 214° |
| 2026-05-07 10:51 | 33.29954 | -16.26882 | 16884 ft | 403 kts | 214° |
| 2026-05-07 10:52 | 33.27567 | -16.28619 | 16413 ft | 401 kts | 214° |
| 2026-05-07 10:52 | 33.25193 | -16.30345 | 15947 ft | 398 kts | 214° |
| 2026-05-07 10:52 | 33.22865 | -16.32036 | 15486 ft | 395 kts | 214° |
| 2026-05-07 10:52 | 33.20520 | -16.33739 | 15024 ft | 393 kts | 214° |
| 2026-05-07 10:53 | 33.18161 | -16.35450 | 14557 ft | 391 kts | 214° |
| 2026-05-07 10:53 | 33.15863 | -16.37117 | 14108 ft | 390 kts | 214° |
| 2026-05-07 10:53 | 33.13543 | -16.38801 | 13611 ft | 389 kts | 214° |
| 2026-05-07 10:53 | 33.11228 | -16.40483 | 13126 ft | 388 kts | 214° |
| 2026-05-07 10:54 | 33.08926 | -16.42154 | 12678 ft | 388 kts | 214° |
| 2026-05-07 10:54 | 33.06624 | -16.43823 | 12201 ft | 387 kts | 213° |
| 2026-05-07 10:54 | 33.04325 | -16.45487 | 11715 ft | 386 kts | 213° |
| 2026-05-07 10:54 | 33.02030 | -16.47144 | 11235 ft | 385 kts | 213° |
| 2026-05-07 10:55 | 32.99740 | -16.48798 | 10751 ft | 385 kts | 213° |
| 2026-05-07 10:55 | 32.97446 | -16.50451 | 10258 ft | 384 kts | 213° |
| 2026-05-07 10:55 | 32.95158 | -16.52101 | 9731 ft | 384 kts | 213° |
| 2026-05-07 10:55 | 32.92884 | -16.53742 | 9224 ft | 374 kts | 213° |
| 2026-05-07 10:56 | 32.90749 | -16.55275 | 8993 ft | 343 kts | 213° |
| 2026-05-07 10:56 | 32.88789 | -16.56682 | 8863 ft | 315 kts | 213° |
| 2026-05-07 10:56 | 32.86988 | -16.57975 | 8724 ft | 291 kts | 213° |
| 2026-05-07 10:56 | 32.85340 | -16.59212 | 8596 ft | 269 kts | 220° |
| 2026-05-07 10:57 | 32.83968 | -16.60651 | 8432 ft | 259 kts | 224° |
| 2026-05-07 10:57 | 32.82632 | -16.62070 | 8096 ft | 256 kts | 221° |
| 2026-05-07 10:57 | 32.81166 | -16.63212 | 7755 ft | 256 kts | 209° |
| 2026-05-07 10:57 | 32.79516 | -16.63989 | 7405 ft | 255 kts | 200° |
| 2026-05-07 10:58 | 32.77837 | -16.64665 | 7055 ft | 253 kts | 200° |
| 2026-05-07 10:58 | 32.76178 | -16.65334 | 6677 ft | 250 kts | 200° |
| 2026-05-07 10:58 | 32.74542 | -16.65995 | 6125 ft | 247 kts | 200° |
| 2026-05-07 10:58 | 32.72913 | -16.66654 | 5533 ft | 246 kts | 200° |
| 2026-05-07 10:59 | 32.71293 | -16.67312 | 4937 ft | 246 kts | 201° |
| 2026-05-07 10:59 | 32.69677 | -16.67967 | 4308 ft | 246 kts | 201° |
| 2026-05-07 10:59 | 32.68081 | -16.68614 | 3946 ft | 236 kts | 201° |
| 2026-05-07 10:59 | 32.66584 | -16.69222 | 3794 ft | 219 kts | 201° |
| 2026-05-07 11:00 | 32.65180 | -16.69791 | 3680 ft | 205 kts | 201° |
| 2026-05-07 11:00 | 32.63869 | -16.70335 | 3586 ft | 197 kts | 204° |
| 2026-05-07 11:00 | 32.62690 | -16.71156 | 3118 ft | 198 kts | 219° |
| 2026-05-07 11:00 | 32.61774 | -16.72314 | 2592 ft | 193 kts | 235° |
| 2026-05-07 11:01 | 32.61170 | -16.73672 | 2309 ft | 178 kts | 250° |
| 2026-05-07 11:01 | 32.60889 | -16.75010 | 2175 ft | 158 kts | 262° |
| 2026-05-07 11:01 | 32.60862 | -16.76263 | 2090 ft | 148 kts | 274° |
| 2026-05-07 11:01 | 32.61044 | -16.77453 | 2019 ft | 146 kts | 286° |
| 2026-05-07 11:02 | 32.61455 | -16.78546 | 1864 ft | 146 kts | 302° |
| 2026-05-07 11:02 | 32.62124 | -16.79438 | 1659 ft | 145 kts | 320° |
| 2026-05-07 11:02 | 32.62984 | -16.80054 | 1452 ft | 146 kts | 337° |
| 2026-05-07 11:02 | 32.63964 | -16.80341 | 1264 ft | 146 kts | 355° |
| 2026-05-07 11:03 | 32.64980 | -16.80322 | 1077 ft | 146 kts | 3° |
| 2026-05-07 11:03 | 32.65989 | -16.80314 | 915 ft | 145 kts | 359° |
| 2026-05-07 11:03 | 32.66963 | -16.80242 | 764 ft | 142 kts | 13° |
| 2026-05-07 11:03 | 32.67848 | -16.79749 | 569 ft | 141 kts | 40° |
| 2026-05-07 11:04 | 32.68526 | -16.78912 | 382 ft | 139 kts | 43° |
| 2026-05-07 11:04 | 32.69221 | -16.78104 | 224 ft | 139 kts | 44° |
| 2026-05-07 11:04 | 32.69902 | -16.77293 | 370 ft | 142 kts | 43° |
| 2026-05-07 11:04 | 32.70614 | -16.76464 | 1126 ft | 143 kts | 44° |
| 2026-05-07 11:05 | 32.71360 | -16.75618 | 1733 ft | 157 kts | 43° |
| 2026-05-07 11:05 | 32.72211 | -16.74653 | 2031 ft | 184 kts | 43° |
| 2026-05-07 11:05 | 32.73202 | -16.73520 | 2321 ft | 208 kts | 43° |
| 2026-05-07 11:05 | 32.74259 | -16.72299 | 2560 ft | 214 kts | 43° |
| 2026-05-07 11:06 | 32.75319 | -16.71044 | 2839 ft | 216 kts | 49° |
| 2026-05-07 11:06 | 32.75989 | -16.69447 | 2976 ft | 220 kts | 78° |
| 2026-05-07 11:06 | 32.75930 | -16.67632 | 3011 ft | 222 kts | 100° |
| 2026-05-07 11:06 | 32.75819 | -16.65803 | 3013 ft | 222 kts | 89° |
| 2026-05-07 11:07 | 32.75869 | -16.63982 | 3017 ft | 221 kts | 87° |
| 2026-05-07 11:07 | 32.75926 | -16.62153 | 3039 ft | 222 kts | 86° |
| 2026-05-07 11:07 | 32.75995 | -16.60326 | 3036 ft | 221 kts | 86° |
| 2026-05-07 11:07 | 32.76068 | -16.58505 | 3033 ft | 220 kts | 87° |
| 2026-05-07 11:08 | 32.76142 | -16.56689 | 3034 ft | 220 kts | 86° |
| 2026-05-07 11:08 | 32.76210 | -16.54872 | 3036 ft | 220 kts | 86° |
| 2026-05-07 11:08 | 32.76277 | -16.53052 | 3038 ft | 221 kts | 86° |
| 2026-05-07 11:08 | 32.76343 | -16.51232 | 3036 ft | 220 kts | 86° |
| 2026-05-07 11:09 | 32.76410 | -16.49415 | 3034 ft | 220 kts | 86° |
| 2026-05-07 11:09 | 32.76474 | -16.47596 | 3033 ft | 221 kts | 86° |
| 2026-05-07 11:09 | 32.76533 | -16.45792 | 3034 ft | 221 kts | 87° |
| 2026-05-07 11:09 | 32.76625 | -16.43968 | 3031 ft | 221 kts | 79° |
| 2026-05-07 11:10 | 32.77289 | -16.42378 | 3036 ft | 216 kts | 42° |
| 2026-05-07 11:10 | 32.78497 | -16.41337 | 3035 ft | 214 kts | 28° |
| 2026-05-07 11:10 | 32.79789 | -16.40450 | 3037 ft | 215 kts | 27° |
| 2026-05-07 11:10 | 32.81095 | -16.39589 | 3034 ft | 214 kts | 26° |
| 2026-05-07 11:11 | 32.82401 | -16.38734 | 3035 ft | 214 kts | 26° |
| 2026-05-07 11:11 | 32.83702 | -16.37879 | 3034 ft | 214 kts | 26° |
| 2026-05-07 11:11 | 32.85006 | -16.37026 | 3033 ft | 214 kts | 27° |
| 2026-05-07 11:11 | 32.86311 | -16.36173 | 3034 ft | 214 kts | 27° |
| 2026-05-07 11:12 | 32.87612 | -16.35320 | 3035 ft | 213 kts | 26° |
| 2026-05-07 11:12 | 32.88994 | -16.34770 | 3034 ft | 210 kts | 2° |
| 2026-05-07 11:12 | 32.90403 | -16.35060 | 3029 ft | 206 kts | 332° |
| 2026-05-07 11:12 | 32.91495 | -16.36122 | 3031 ft | 205 kts | 304° |
| 2026-05-07 11:13 | 32.92009 | -16.37681 | 3029 ft | 204 kts | 276° |
| 2026-05-07 11:13 | 32.91824 | -16.39351 | 3030 ft | 207 kts | 250° |
| 2026-05-07 11:13 | 32.91297 | -16.40953 | 3025 ft | 208 kts | 250° |
| 2026-05-07 11:13 | 32.90773 | -16.42560 | 3029 ft | 209 kts | 250° |
| 2026-05-07 11:14 | 32.90251 | -16.44171 | 3033 ft | 209 kts | 251° |
| 2026-05-07 11:14 | 32.89730 | -16.45782 | 3034 ft | 208 kts | 251° |
| 2026-05-07 11:14 | 32.89209 | -16.47394 | 3034 ft | 209 kts | 251° |
| 2026-05-07 11:14 | 32.88689 | -16.49006 | 3034 ft | 209 kts | 251° |
| 2026-05-07 11:15 | 32.88168 | -16.50616 | 3033 ft | 208 kts | 251° |
| 2026-05-07 11:15 | 32.87648 | -16.52222 | 3032 ft | 208 kts | 250° |
| 2026-05-07 11:15 | 32.87128 | -16.53825 | 3034 ft | 208 kts | 251° |
| 2026-05-07 11:15 | 32.86607 | -16.55430 | 3034 ft | 208 kts | 251° |
| 2026-05-07 11:16 | 32.86086 | -16.57035 | 3034 ft | 208 kts | 251° |
| 2026-05-07 11:16 | 32.85534 | -16.58603 | 3032 ft | 209 kts | 242° |
| 2026-05-07 11:16 | 32.84632 | -16.59964 | 3033 ft | 212 kts | 224° |
| 2026-05-07 11:16 | 32.83526 | -16.61130 | 3036 ft | 212 kts | 224° |
| 2026-05-07 11:17 | 32.82410 | -16.62272 | 3034 ft | 212 kts | 219° |
| 2026-05-07 11:17 | 32.81163 | -16.63204 | 3036 ft | 213 kts | 208° |
| 2026-05-07 11:17 | 32.79789 | -16.63866 | 3035 ft | 213 kts | 200° |
| 2026-05-07 11:17 | 32.78386 | -16.64428 | 2933 ft | 212 kts | 200° |
| 2026-05-07 11:18 | 32.76987 | -16.64994 | 2603 ft | 212 kts | 200° |
| 2026-05-07 11:18 | 32.75591 | -16.65563 | 2276 ft | 213 kts | 200° |
| 2026-05-07 11:18 | 32.74197 | -16.66130 | 2074 ft | 209 kts | 200° |
| 2026-05-07 11:18 | 32.72856 | -16.66674 | 2025 ft | 199 kts | 200° |
| 2026-05-07 11:19 | 32.71558 | -16.67200 | 2033 ft | 196 kts | 200° |
| 2026-05-07 11:19 | 32.70272 | -16.67721 | 2034 ft | 195 kts | 201° |
| 2026-05-07 11:19 | 32.69011 | -16.68234 | 2036 ft | 194 kts | 200° |
| 2026-05-07 11:19 | 32.67732 | -16.68753 | 2035 ft | 194 kts | 200° |
| 2026-05-07 11:20 | 32.66461 | -16.69267 | 2072 ft | 186 kts | 200° |
| 2026-05-07 11:20 | 32.65287 | -16.69742 | 2033 ft | 171 kts | 200° |
| 2026-05-07 11:20 | 32.64220 | -16.70174 | 2034 ft | 153 kts | 200° |
| 2026-05-07 11:20 | 32.63278 | -16.70686 | 2037 ft | 146 kts | 212° |
| 2026-05-07 11:21 | 32.62470 | -16.71397 | 2037 ft | 144 kts | 223° |
| 2026-05-07 11:21 | 32.61805 | -16.72283 | 2037 ft | 143 kts | 234° |
| 2026-05-07 11:21 | 32.61300 | -16.73302 | 2036 ft | 143 kts | 245° |
| 2026-05-07 11:21 | 32.60977 | -16.74408 | 2036 ft | 142 kts | 256° |
| 2026-05-07 11:22 | 32.60842 | -16.75564 | 2036 ft | 141 kts | 267° |
| 2026-05-07 11:22 | 32.60900 | -16.76729 | 2036 ft | 142 kts | 278° |
| 2026-05-07 11:22 | 32.61153 | -16.77864 | 2030 ft | 143 kts | 289° |
| 2026-05-07 11:22 | 32.61658 | -16.78887 | 1834 ft | 145 kts | 308° |
| 2026-05-07 11:23 | 32.62402 | -16.79689 | 1638 ft | 145 kts | 325° |
| 2026-05-07 11:23 | 32.63318 | -16.80181 | 1462 ft | 147 kts | 342° |
| 2026-05-07 11:23 | 32.64316 | -16.80419 | 1261 ft | 146 kts | 354° |
| 2026-05-07 11:23 | 32.65334 | -16.80457 | 1036 ft | 146 kts | 0° |
| 2026-05-07 11:24 | 32.66335 | -16.80351 | 831 ft | 144 kts | 7° |
| 2026-05-07 11:24 | 32.66971 | -16.80153 | 713 ft | 143 kts | 19° |
| 2026-05-07 11:24 | 32.67835 | -16.79591 | 527 ft | 141 kts | 34° |
| 2026-05-07 11:24 | 32.68818 | -16.78580 | 269 ft | 141 kts | 43° |
| 2026-05-07 11:25 | 32.69280 | -16.78027 | 191 ft | 137 kts | 44° |
| 2026-05-07 11:25 | 32.69944 | -16.77268 | 192 ft | 37 kts | 44° |
| 2026-05-07 11:25 | 32.69945 | -16.77192 | 188 ft | 9 kts | 145° |
| 2026-05-07 11:25 | 32.69880 | -16.77175 | 185 ft | 12 kts | 176° |
| 2026-05-07 11:26 | 32.69820 | -16.77180 | 183 ft | 14 kts | 202° |
| 2026-05-07 11:26 | 32.69764 | -16.77237 | 178 ft | 13 kts | 230° |
| 2026-05-07 11:26 | 32.69698 | -16.77347 | 170 ft | 20 kts | 235° |
| 2026-05-07 11:26 | 32.69608 | -16.77464 | 169 ft | 18 kts | 227° |
| 2026-05-07 11:27 | 32.69520 | -16.77569 | 169 ft | 18 kts | 227° |
| 2026-05-07 11:27 | 32.69438 | -16.77669 | 169 ft | 8 kts | 207° |
| 2026-05-07 11:27 | 32.69395 | -16.77638 | 169 ft | 7 kts | 137° |
| 2026-05-07 11:27 | 32.69389 | -16.77632 | 169 ft | 1 kts | 137° |
| 2026-05-07 11:28 | 32.69386 | -16.77628 | 169 ft | 0 kts | 137° |